createdAt,value
2022-12-25T00:00:04.693Z,67.96
2022-12-25T00:02:32.789Z,67.58
2022-12-25T00:05:00.965Z,67.46
2022-12-25T00:07:30.338Z,67.18
2022-12-25T00:09:58.163Z,67.14
2022-12-25T00:12:26.661Z,67.64
2022-12-25T00:14:54.585Z,67.88
2022-12-25T00:17:22.429Z,67.61
2022-12-25T00:19:50.852Z,67.25
2022-12-25T00:22:18.706Z,67.54
2022-12-25T00:24:50.159Z,66.93
2022-12-25T00:27:18.768Z,67.13
2022-12-25T00:29:46.607Z,66.75
2022-12-25T00:32:14.405Z,66.91
2022-12-25T00:34:42.500Z,66.92
2022-12-25T00:37:10.453Z,66.86
2022-12-25T00:39:38.559Z,66.82
2022-12-25T00:42:20.833Z,66.89
2022-12-25T00:44:48.674Z,66.88
2022-12-25T00:47:17.480Z,66.55
2022-12-25T00:49:45.664Z,66.78
2022-12-25T00:52:13.572Z,66.48
2022-12-25T00:54:41.434Z,66.72
2022-12-25T00:57:11.556Z,66.69
2022-12-25T00:59:39.518Z,66.42
2022-12-25T01:02:26.438Z,66.14
2022-12-25T01:04:56.400Z,66.22
2022-12-25T01:07:26.886Z,66.26
2022-12-25T01:10:12.541Z,66.08
2022-12-25T01:12:44.591Z,66.31
2022-12-25T01:15:13.851Z,65.89
2022-12-25T01:17:42.039Z,65.84
2022-12-25T01:20:10.822Z,66.14
2022-12-25T01:22:38.859Z,65.64
2022-12-25T01:25:07.317Z,65.56
2022-12-25T01:27:35.779Z,65.91
2022-12-25T01:30:05.796Z,65.98
2022-12-25T01:32:33.955Z,65.65
2022-12-25T01:35:02.469Z,66.08
2022-12-25T01:37:30.318Z,65.49
2022-12-25T01:39:58.178Z,65.98
2022-12-25T01:42:26.585Z,65.70
2022-12-25T01:45:39.696Z,65.95
2022-12-25T01:48:13.510Z,65.35
2022-12-25T01:50:45.483Z,65.55
2022-12-25T01:53:14.326Z,65.45
2022-12-25T01:55:44.579Z,65.57
2022-12-25T01:58:12.583Z,65.46
2022-12-25T02:00:44.926Z,65.35
2022-12-25T02:03:13.012Z,65.73
2022-12-25T02:05:41.293Z,65.74
2022-12-25T02:08:13.000Z,65.56
2022-12-25T02:10:41.123Z,65.79
2022-12-25T02:13:09.955Z,65.15
2022-12-25T02:15:47.612Z,65.63
2022-12-25T02:18:26.927Z,65.83
2022-12-25T02:21:15.807Z,65.20
2022-12-25T02:24:10.230Z,65.72
2022-12-25T02:27:04.523Z,65.21
2022-12-25T02:29:43.691Z,65.36
2022-12-25T02:32:18.611Z,65.44
2022-12-25T02:34:51.896Z,65.54
2022-12-25T02:37:27.572Z,65.21
2022-12-25T02:40:02.833Z,65.49
2022-12-25T02:43:05.621Z,65.28
2022-12-25T02:45:59.204Z,65.48
2022-12-25T02:48:49.492Z,65.06
2022-12-25T02:51:39.013Z,65.55
2022-12-25T02:54:28.948Z,65.02
2022-12-25T02:57:16.870Z,65.10
2022-12-25T03:00:06.049Z,65.60
2022-12-25T03:02:53.322Z,65.00
2022-12-25T03:05:42.386Z,65.64
2022-12-25T03:08:14.976Z,65.51
2022-12-25T03:11:09.586Z,65.23
2022-12-25T03:13:40.862Z,64.96
2022-12-25T03:16:27.149Z,65.38
2022-12-25T03:18:58.902Z,65.59
2022-12-25T03:21:45.562Z,65.62
2022-12-25T03:24:30.951Z,65.26
2022-12-25T03:26:59.345Z,65.37
2022-12-25T03:29:48.729Z,66.09
2022-12-25T03:32:25.907Z,65.48
2022-12-25T03:35:20.331Z,65.82
2022-12-25T03:38:18.917Z,66.25
2022-12-25T03:41:15.984Z,66.19
2022-12-25T03:44:12.480Z,66.05
2022-12-25T03:47:06.854Z,65.95
2022-12-25T03:50:02.282Z,65.96
2022-12-25T03:52:50.121Z,66.16
2022-12-25T03:55:38.160Z,66.07
2022-12-25T03:58:23.743Z,66.14
2022-12-25T04:01:09.153Z,66.24
2022-12-25T04:03:54.412Z,65.87
2022-12-25T04:06:40.068Z,66.51
2022-12-25T04:09:26.891Z,66.50
2022-12-25T04:12:12.639Z,66.19
2022-12-25T04:14:57.737Z,66.32
2022-12-25T04:17:43.624Z,66.22
2022-12-25T04:20:29.418Z,66.63
2022-12-25T04:23:15.069Z,66.77
2022-12-25T04:26:01.819Z,66.31
2022-12-25T04:28:47.789Z,66.85
2022-12-25T04:31:33.434Z,66.68
2022-12-25T04:34:19.249Z,66.91
2022-12-25T04:36:47.065Z,67.04
2022-12-25T04:39:14.859Z,67.38
2022-12-25T04:41:44.739Z,67.02
2022-12-25T04:44:12.559Z,67.20
2022-12-25T04:46:40.491Z,67.13
2022-12-25T04:49:09.013Z,67.65
2022-12-25T04:51:37.989Z,67.74
2022-12-25T04:54:06.116Z,67.92
2022-12-25T04:56:40.028Z,68.13
2022-12-25T04:59:12.810Z,67.50
2022-12-25T05:01:41.371Z,67.66
2022-12-25T05:04:09.264Z,67.84
2022-12-25T05:06:37.048Z,68.06
2022-12-25T05:09:05.555Z,67.60
2022-12-25T05:11:33.535Z,68.22
2022-12-25T05:14:01.389Z,68.07
2022-12-25T05:16:31.723Z,68.10
2022-12-25T05:18:59.691Z,67.79
2022-12-25T05:21:27.608Z,67.75
2022-12-25T05:23:55.861Z,68.38
2022-12-25T05:26:26.033Z,67.79
2022-12-25T05:28:54.276Z,67.71
2022-12-25T05:31:24.657Z,67.80
2022-12-25T05:33:53.919Z,67.84
2022-12-25T05:36:22.015Z,67.65
2022-12-25T05:38:50.679Z,68.12
2022-12-25T05:41:18.568Z,68.17
2022-12-25T05:43:46.484Z,68.52
2022-12-25T05:46:15.719Z,68.01
2022-12-25T05:48:43.632Z,68.45
2022-12-25T05:51:15.276Z,68.04
2022-12-25T05:53:45.287Z,68.21
2022-12-25T05:56:13.206Z,68.39
2022-12-25T05:58:41.758Z,68.06
2022-12-25T06:01:14.559Z,67.96
2022-12-25T06:03:42.564Z,67.99
2022-12-25T06:06:12.696Z,67.51
2022-12-25T06:08:41.091Z,67.56
2022-12-25T06:11:10.322Z,67.64
2022-12-25T06:13:38.430Z,67.68
2022-12-25T06:16:07.558Z,67.99
2022-12-25T06:18:36.944Z,67.51
2022-12-25T06:21:08.341Z,67.69
2022-12-25T06:23:38.884Z,67.50
2022-12-25T06:26:09.059Z,67.91
2022-12-25T06:28:37.515Z,67.55
2022-12-25T06:31:08.462Z,67.89
2022-12-25T06:33:37.923Z,67.29
2022-12-25T06:36:07.566Z,67.78
2022-12-25T06:38:36.962Z,67.70
2022-12-25T06:41:07.573Z,67.64
2022-12-25T06:43:35.463Z,67.61
2022-12-25T06:46:05.060Z,67.23
2022-12-25T06:48:34.046Z,67.76
2022-12-25T06:51:03.108Z,67.75
2022-12-25T06:53:38.793Z,67.20
2022-12-25T06:56:15.869Z,67.79
2022-12-25T06:58:44.469Z,67.88
2022-12-25T07:01:19.029Z,67.92
2022-12-25T07:03:48.628Z,67.91
2022-12-25T07:06:16.741Z,67.61
2022-12-25T07:08:44.999Z,67.55
2022-12-25T07:11:14.384Z,67.39
2022-12-25T07:13:42.199Z,67.56
2022-12-25T07:16:12.630Z,67.51
2022-12-25T07:18:41.210Z,67.28
2022-12-25T07:21:10.294Z,67.70
2022-12-25T07:23:38.904Z,67.91
2022-12-25T07:26:07.089Z,67.85
2022-12-25T07:28:36.406Z,67.92
2022-12-25T07:31:06.457Z,68.00
2022-12-25T07:33:34.482Z,68.37
2022-12-25T07:36:02.469Z,68.09
2022-12-25T07:38:31.024Z,67.82
2022-12-25T07:40:58.902Z,68.10
2022-12-25T07:43:27.441Z,68.18
2022-12-25T07:45:59.220Z,68.37
2022-12-25T07:48:27.830Z,68.11
2022-12-25T07:51:00.541Z,67.95
2022-12-25T07:53:28.717Z,67.83
2022-12-25T07:56:01.549Z,68.66
2022-12-25T07:58:29.892Z,68.00
2022-12-25T08:01:05.563Z,68.41
2022-12-25T08:03:34.566Z,68.63
2022-12-25T08:06:02.735Z,68.62
2022-12-25T08:08:31.547Z,68.72
2022-12-25T08:10:59.585Z,68.92
2022-12-25T08:13:27.587Z,68.53
2022-12-25T08:15:59.967Z,68.60
2022-12-25T08:18:30.304Z,68.55
2022-12-25T08:20:58.673Z,68.97
2022-12-25T08:23:26.962Z,68.54
2022-12-25T08:26:00.295Z,68.90
2022-12-25T08:28:32.603Z,69.19
2022-12-25T08:31:07.710Z,68.62
2022-12-25T08:33:36.531Z,68.94
2022-12-25T08:36:04.792Z,68.68
2022-12-25T08:38:32.960Z,68.95
2022-12-25T08:41:00.765Z,68.67
2022-12-25T08:43:28.783Z,68.76
2022-12-25T08:45:56.623Z,68.75
2022-12-25T08:48:26.384Z,69.18
2022-12-25T08:50:54.913Z,68.86
2022-12-25T08:53:23.188Z,68.85
2022-12-25T08:55:58.134Z,68.37
2022-12-25T08:58:26.366Z,68.99
2022-12-25T09:00:54.609Z,68.94
2022-12-25T09:03:23.185Z,68.93
2022-12-25T09:05:52.703Z,68.84
2022-12-25T09:08:21.746Z,68.76
2022-12-25T09:10:50.254Z,68.88
2022-12-25T09:13:18.113Z,69.07
2022-12-25T09:15:46.100Z,68.69
2022-12-25T09:18:14.655Z,68.65
2022-12-25T09:20:42.469Z,68.56
2022-12-25T09:23:14.011Z,68.61
2022-12-25T09:25:43.013Z,68.22
2022-12-25T09:28:10.834Z,68.43
2022-12-25T09:30:38.863Z,68.40
2022-12-25T09:33:07.606Z,68.05
2022-12-25T09:35:35.484Z,68.48
2022-12-25T09:38:03.324Z,68.25
2022-12-25T09:40:34.090Z,68.60
2022-12-25T09:43:04.434Z,68.71
2022-12-25T09:45:37.378Z,68.58
2022-12-25T09:48:05.787Z,68.72
2022-12-25T09:50:41.873Z,68.86
2022-12-25T09:53:16.284Z,68.61
2022-12-25T09:55:53.639Z,69.11
2022-12-25T09:58:21.411Z,68.83
2022-12-25T10:00:56.871Z,69.24
2022-12-25T10:03:30.330Z,68.41
2022-12-25T10:06:13.147Z,68.46
2022-12-25T10:09:00.083Z,68.34
2022-12-25T10:11:48.436Z,68.65
2022-12-25T10:14:35.318Z,68.68
2022-12-25T10:17:25.300Z,69.30
2022-12-25T10:20:02.081Z,69.57
2022-12-25T10:22:36.162Z,69.18
2022-12-25T10:25:06.905Z,69.08
2022-12-25T10:27:40.782Z,68.68
2022-12-25T10:30:15.896Z,68.70
2022-12-25T10:32:44.581Z,69.14
2022-12-25T10:35:13.232Z,69.20
2022-12-25T10:37:42.559Z,69.16
2022-12-25T10:40:27.588Z,68.94
2022-12-25T10:43:02.354Z,69.16
2022-12-25T10:45:30.340Z,69.55
2022-12-25T10:48:07.481Z,69.00
2022-12-25T10:50:43.704Z,69.33
2022-12-25T10:53:20.312Z,69.02
2022-12-25T10:56:02.319Z,69.50
2022-12-25T10:58:32.028Z,69.13
2022-12-25T11:01:02.331Z,69.53
2022-12-25T11:03:32.817Z,69.18
2022-12-25T11:06:01.117Z,69.35
2022-12-25T11:08:31.110Z,69.49
2022-12-25T11:11:06.073Z,69.55
2022-12-25T11:13:38.638Z,69.12
2022-12-25T11:16:10.794Z,68.98
2022-12-25T11:18:46.960Z,69.50
2022-12-25T11:21:19.724Z,69.38
2022-12-25T11:23:50.371Z,69.13
2022-12-25T11:26:19.422Z,69.63
2022-12-25T11:28:51.517Z,69.30
2022-12-25T11:31:22.481Z,69.95
2022-12-25T11:33:56.806Z,69.81
2022-12-25T11:36:33.238Z,69.75
2022-12-25T11:39:09.497Z,69.86
2022-12-25T11:41:41.517Z,69.68
2022-12-25T11:44:27.364Z,69.46
2022-12-25T11:46:56.269Z,69.53
2022-12-25T11:49:24.594Z,69.54
2022-12-25T11:51:57.536Z,69.30
2022-12-25T11:54:28.880Z,69.61
2022-12-25T11:56:59.210Z,70.21
2022-12-25T11:59:34.142Z,69.96
2022-12-25T12:02:19.818Z,69.60
2022-12-25T12:04:50.247Z,69.84
2022-12-25T12:07:23.679Z,69.71
2022-12-25T12:09:59.897Z,69.37
2022-12-25T12:12:33.663Z,70.17
2022-12-25T12:15:14.187Z,70.14
2022-12-25T12:17:42.636Z,69.73
2022-12-25T12:20:27.850Z,69.95
2022-12-25T12:22:56.619Z,69.94
2022-12-25T12:25:24.507Z,69.48
2022-12-25T12:28:02.891Z,70.18
2022-12-25T12:30:36.019Z,69.65
2022-12-25T12:33:07.685Z,69.72
2022-12-25T12:35:38.316Z,70.04
2022-12-25T12:38:09.633Z,69.97
2022-12-25T12:40:40.235Z,70.37
2022-12-25T12:43:29.791Z,69.75
2022-12-25T12:46:04.089Z,69.95
2022-12-25T12:48:40.338Z,69.88
2022-12-25T12:51:10.470Z,69.46
2022-12-25T12:53:39.735Z,69.38
2022-12-25T12:56:16.317Z,69.84
2022-12-25T12:58:49.015Z,69.30
2022-12-25T13:01:40.406Z,69.62
2022-12-25T13:04:35.278Z,69.49
2022-12-25T13:07:12.447Z,69.72
2022-12-25T13:09:55.688Z,69.50
2022-12-25T13:12:24.551Z,69.23
2022-12-25T13:14:52.341Z,69.98
2022-12-25T13:17:25.468Z,69.61
2022-12-25T13:19:57.053Z,69.33
2022-12-25T13:22:27.124Z,69.95
2022-12-25T13:24:59.400Z,69.73
2022-12-25T13:27:29.206Z,69.38
2022-12-25T13:29:57.473Z,69.67
2022-12-25T13:32:29.647Z,69.58
2022-12-25T13:34:57.994Z,69.33
2022-12-25T13:37:28.439Z,70.55
2022-12-25T13:39:59.374Z,70.30
2022-12-25T13:42:30.165Z,69.96
2022-12-25T13:45:01.433Z,69.90
2022-12-25T13:47:34.553Z,69.95
2022-12-25T13:50:16.916Z,70.19
2022-12-25T13:52:45.981Z,70.05
2022-12-25T13:55:16.374Z,69.87
2022-12-25T13:57:46.903Z,69.95
2022-12-25T14:00:20.636Z,70.22
2022-12-25T14:02:53.921Z,69.75
2022-12-25T14:05:25.584Z,70.27
2022-12-25T14:07:54.138Z,69.78
2022-12-25T14:10:23.191Z,70.30
2022-12-25T14:12:52.594Z,70.36
2022-12-25T14:15:22.574Z,70.21
2022-12-25T14:17:52.871Z,70.49
2022-12-25T14:20:26.765Z,70.21
2022-12-25T14:22:57.207Z,70.29
2022-12-25T14:25:31.307Z,70.27
2022-12-25T14:27:59.254Z,70.03
2022-12-25T14:30:29.963Z,70.03
2022-12-25T14:32:59.964Z,70.45
2022-12-25T14:35:27.898Z,70.40
2022-12-25T14:38:00.695Z,70.18
2022-12-25T14:40:31.423Z,70.41
2022-12-25T14:43:01.145Z,70.29
2022-12-25T14:45:32.106Z,71.02
2022-12-25T14:48:04.664Z,70.34
2022-12-25T14:50:37.331Z,70.62
2022-12-25T14:53:05.813Z,70.68
2022-12-25T14:55:33.757Z,70.53
2022-12-25T14:58:04.986Z,70.98
2022-12-25T15:00:36.161Z,70.92
2022-12-25T15:03:07.991Z,70.88
2022-12-25T15:05:39.060Z,70.90
2022-12-25T15:08:23.649Z,70.92
2022-12-25T15:11:02.092Z,71.18
2022-12-25T15:13:31.833Z,70.89
2022-12-25T15:16:04.851Z,71.21
2022-12-25T15:18:39.387Z,71.39
2022-12-25T15:21:07.655Z,70.66
2022-12-25T15:23:35.631Z,70.74
2022-12-25T15:26:03.612Z,71.07
2022-12-25T15:28:31.537Z,71.08
2022-12-25T15:30:59.592Z,71.05
2022-12-25T15:33:27.600Z,71.53
2022-12-25T15:35:56.882Z,70.98
2022-12-25T15:38:24.878Z,71.69
2022-12-25T15:40:52.813Z,71.46
2022-12-25T15:43:39.967Z,71.64
2022-12-25T15:46:10.494Z,71.59
2022-12-25T15:48:38.569Z,71.48
2022-12-25T15:51:07.974Z,71.44
2022-12-25T15:53:36.840Z,71.67
2022-12-25T15:56:05.541Z,71.39
2022-12-25T15:58:33.910Z,71.29
2022-12-25T16:01:01.730Z,70.97
2022-12-25T16:09:06.240Z,71.15
2022-12-25T16:11:34.224Z,71.29
2022-12-25T16:14:02.109Z,71.21
2022-12-25T16:16:30.167Z,71.77
2022-12-25T16:18:58.164Z,71.65
2022-12-25T16:21:28.305Z,71.58
2022-12-25T16:23:56.661Z,71.71
2022-12-25T16:26:24.492Z,71.19
2022-12-25T16:28:52.240Z,71.46
2022-12-25T16:31:20.829Z,71.85
2022-12-25T16:33:48.677Z,71.64
2022-12-25T16:36:20.668Z,71.66
2022-12-25T16:38:53.378Z,71.54
2022-12-25T16:41:21.827Z,71.40
2022-12-25T16:43:49.698Z,70.99
2022-12-25T16:46:20.020Z,71.11
2022-12-25T16:48:48.023Z,71.68
2022-12-25T16:51:17.856Z,71.57
2022-12-25T16:53:46.670Z,71.59
2022-12-25T16:56:17.667Z,71.10
2022-12-25T16:58:47.136Z,71.34
2022-12-25T17:01:17.210Z,71.41
2022-12-25T17:03:45.277Z,70.99
2022-12-25T17:06:17.957Z,71.53
2022-12-25T17:08:45.946Z,71.17
2022-12-25T17:11:15.820Z,71.35
2022-12-25T17:13:47.340Z,71.04
2022-12-25T17:16:16.898Z,71.51
2022-12-25T17:18:46.144Z,71.37
2022-12-25T17:21:15.700Z,71.50
2022-12-25T17:23:45.203Z,71.14
2022-12-25T17:26:13.333Z,71.33
2022-12-25T17:28:42.661Z,71.06
2022-12-25T17:31:13.491Z,71.11
2022-12-25T17:33:43.902Z,71.45
2022-12-25T17:36:14.594Z,71.40
2022-12-25T17:38:43.033Z,70.92
2022-12-25T17:41:14.403Z,71.18
2022-12-25T17:43:45.767Z,71.42
2022-12-25T17:46:17.051Z,70.97
2022-12-25T17:48:45.843Z,71.10
2022-12-25T17:51:16.316Z,70.77
2022-12-25T17:53:47.345Z,71.27
2022-12-25T17:56:16.400Z,71.51
2022-12-25T17:58:46.127Z,75.03
2022-12-25T18:01:16.379Z,74.60
2022-12-25T18:03:44.380Z,73.74
2022-12-25T18:06:17.096Z,71.22
2022-12-25T18:08:46.886Z,70.69
2022-12-25T18:11:17.597Z,70.59
2022-12-25T18:13:50.037Z,70.52
2022-12-25T18:16:20.274Z,70.06
2022-12-25T18:18:52.191Z,69.90
2022-12-25T18:21:21.894Z,70.20
2022-12-25T18:23:50.571Z,70.49
2022-12-25T18:26:19.878Z,70.27
2022-12-25T18:28:50.139Z,70.58
2022-12-25T18:31:20.185Z,70.86
2022-12-25T18:33:48.905Z,70.87
2022-12-25T18:36:20.627Z,70.75
2022-12-25T18:38:48.754Z,70.68
2022-12-25T18:41:17.007Z,71.15
2022-12-25T18:43:52.919Z,70.54
2022-12-25T18:46:25.657Z,70.80
2022-12-25T18:48:54.950Z,70.91
2022-12-25T18:51:23.262Z,71.02
2022-12-25T18:53:51.487Z,71.26
2022-12-25T18:56:19.859Z,71.46
2022-12-25T18:58:47.920Z,71.18
2022-12-25T19:01:17.964Z,71.22
2022-12-25T19:03:49.427Z,71.25
2022-12-25T19:06:18.970Z,71.41
2022-12-25T19:08:47.212Z,71.68
2022-12-25T19:11:16.256Z,71.62
2022-12-25T19:13:44.377Z,71.45
2022-12-25T19:16:12.742Z,71.36
2022-12-25T19:18:41.997Z,71.61
2022-12-25T19:21:11.854Z,71.44
2022-12-25T19:23:47.810Z,71.90
2022-12-25T19:26:16.153Z,71.30
2022-12-25T19:28:44.044Z,71.51
2022-12-25T19:31:13.004Z,71.72
2022-12-25T19:33:42.464Z,71.89
2022-12-25T19:36:14.982Z,71.44
2022-12-25T19:38:43.593Z,71.46
2022-12-25T19:41:13.891Z,71.46
2022-12-25T19:43:43.898Z,71.50
2022-12-25T19:46:17.645Z,71.71
2022-12-25T19:48:47.225Z,72.12
2022-12-25T19:51:22.069Z,72.25
2022-12-25T19:53:50.595Z,71.75
2022-12-25T19:56:19.149Z,72.34
2022-12-25T19:58:47.079Z,72.18
2022-12-25T20:01:18.062Z,72.36
2022-12-25T20:03:46.795Z,72.32
2022-12-25T20:06:18.891Z,72.04
2022-12-25T20:08:49.363Z,72.29
2022-12-25T20:11:19.161Z,72.24
2022-12-25T20:13:47.202Z,72.29
2022-12-25T20:16:15.060Z,72.35
2022-12-25T20:18:46.064Z,72.09
2022-12-25T20:21:17.167Z,72.24
2022-12-25T20:23:47.020Z,72.51
2022-12-25T20:26:17.699Z,72.38
2022-12-25T20:28:46.232Z,72.19
2022-12-25T20:31:17.118Z,71.96
2022-12-25T20:33:45.230Z,71.72
2022-12-25T20:36:13.668Z,72.04
2022-12-25T20:38:41.881Z,72.21
2022-12-25T20:41:29.451Z,71.88
2022-12-25T20:44:02.308Z,71.90
2022-12-25T20:46:30.334Z,71.92
2022-12-25T20:48:58.525Z,72.04
2022-12-25T20:51:28.160Z,72.06
2022-12-25T20:53:56.758Z,71.92
2022-12-25T20:56:27.163Z,71.77
2022-12-25T20:58:58.657Z,72.39
2022-12-25T21:01:28.917Z,72.25
2022-12-25T21:03:57.625Z,72.42
2022-12-25T21:06:25.733Z,72.22
2022-12-25T21:08:53.667Z,72.59
2022-12-25T21:11:22.615Z,72.54
2022-12-25T21:13:51.318Z,72.58
2022-12-25T21:16:23.262Z,72.78
2022-12-25T21:18:54.314Z,72.70
2022-12-25T21:21:23.169Z,73.09
2022-12-25T21:23:51.248Z,72.60
2022-12-25T21:26:21.840Z,73.07
2022-12-25T21:28:51.402Z,72.81
2022-12-25T21:31:19.991Z,72.94
2022-12-25T21:33:53.798Z,72.86
2022-12-25T21:36:27.105Z,73.14
2022-12-25T21:39:00.722Z,73.21
2022-12-25T21:41:29.842Z,73.75
2022-12-25T21:44:01.350Z,73.22
2022-12-25T21:46:30.287Z,73.14
2022-12-25T21:48:59.189Z,73.69
2022-12-25T21:51:47.876Z,73.47
2022-12-25T21:54:17.366Z,72.88
2022-12-25T21:56:48.406Z,72.94
2022-12-25T21:59:17.991Z,72.90
2022-12-25T22:01:46.653Z,73.14
2022-12-25T22:04:16.149Z,73.01
2022-12-25T22:07:03.724Z,73.33
2022-12-25T22:09:34.821Z,72.94
2022-12-25T22:12:28.524Z,73.22
2022-12-25T22:15:06.247Z,73.21
2022-12-25T22:17:53.876Z,73.20
2022-12-25T22:20:24.022Z,73.36
2022-12-25T22:22:54.723Z,73.70
2022-12-25T22:25:23.983Z,73.21
2022-12-25T22:27:52.333Z,73.56
2022-12-25T22:30:23.311Z,73.42
2022-12-25T22:32:52.397Z,73.23
2022-12-25T22:35:20.820Z,72.85
2022-12-25T22:37:50.210Z,72.96
2022-12-25T22:40:21.419Z,72.89
2022-12-25T22:42:49.313Z,72.85
2022-12-25T22:45:17.939Z,73.20
2022-12-25T22:47:45.846Z,73.02
2022-12-25T22:50:15.801Z,72.96
2022-12-25T22:52:46.227Z,72.65
2022-12-25T22:55:18.438Z,73.00
2022-12-25T22:57:49.421Z,72.73
2022-12-25T23:00:17.352Z,72.82
2022-12-25T23:02:45.439Z,72.73
2022-12-25T23:05:14.059Z,72.53
2022-12-25T23:07:41.980Z,72.33
2022-12-25T23:10:10.858Z,72.19
2022-12-25T23:12:56.781Z,72.19
2022-12-25T23:15:27.686Z,71.92
2022-12-25T23:18:13.939Z,71.98
2022-12-25T23:20:58.995Z,72.00
2022-12-25T23:23:44.599Z,71.45
2022-12-25T23:26:15.262Z,71.60
2022-12-25T23:29:01.646Z,71.42
2022-12-25T23:31:34.634Z,71.60
2022-12-25T23:34:03.316Z,71.25
2022-12-25T23:36:31.146Z,71.53
2022-12-25T23:39:04.827Z,71.47
2022-12-25T23:41:37.419Z,71.72
2022-12-25T23:44:05.297Z,71.39
2022-12-25T23:46:36.112Z,71.61
2022-12-25T23:49:05.025Z,71.51
2022-12-25T23:51:32.854Z,71.79
2022-12-25T23:54:00.710Z,71.46
2022-12-25T23:56:28.679Z,71.04
2022-12-25T23:58:56.561Z,71.30
